createdAt,value
2022-11-10T00:02:20.952Z,9.64
2022-11-10T00:04:47.333Z,9.70
2022-11-10T00:07:15.187Z,9.72
2022-11-10T00:09:41.629Z,9.74
2022-11-10T00:12:08.003Z,9.74
2022-11-10T00:14:53.033Z,9.73
2022-11-10T00:17:19.453Z,9.74
2022-11-10T00:19:45.796Z,9.75
2022-11-10T00:22:12.177Z,9.73
2022-11-10T00:24:38.562Z,9.73
2022-11-10T00:27:04.917Z,9.72
2022-11-10T00:29:31.305Z,9.70
2022-11-10T00:31:57.762Z,9.69
2022-11-10T00:34:25.180Z,9.68
2022-11-10T00:36:51.556Z,9.70
2022-11-10T00:39:17.947Z,9.70
2022-11-10T00:41:44.345Z,9.70
2022-11-10T00:44:10.730Z,9.70
2022-11-10T00:46:37.113Z,9.69
2022-11-10T00:49:03.542Z,9.70
2022-11-10T00:51:30.506Z,9.70
2022-11-10T00:53:56.975Z,9.66
2022-11-10T00:59:04.173Z,9.68
2022-11-10T01:01:30.613Z,9.69
2022-11-10T01:03:57.042Z,9.70
2022-11-10T01:06:23.421Z,9.71
2022-11-10T01:08:49.841Z,9.71
2022-11-10T01:11:17.637Z,9.72
2022-11-10T01:13:44.225Z,9.74
2022-11-10T01:16:12.866Z,9.74
2022-11-10T01:18:39.405Z,9.73
2022-11-10T01:21:06.042Z,9.74
2022-11-10T01:23:32.543Z,9.75
2022-11-10T01:26:00.227Z,9.75
2022-11-10T01:28:26.834Z,9.73
2022-11-10T01:30:57.067Z,9.75
2022-11-10T01:33:23.859Z,9.75
2022-11-10T01:35:50.544Z,9.76
2022-11-10T01:38:16.983Z,9.76
2022-11-10T01:40:43.726Z,9.79
2022-11-10T01:43:11.163Z,9.78
2022-11-10T01:45:43.680Z,9.79
2022-11-10T01:48:12.563Z,9.77
2022-11-10T01:50:41.745Z,9.77
2022-11-10T01:53:11.491Z,9.77
2022-11-10T01:55:39.085Z,9.80
2022-11-10T01:58:05.840Z,9.79
2022-11-10T02:00:32.358Z,9.82
2022-11-10T02:03:04.037Z,9.83
2022-11-10T02:05:30.813Z,9.88
2022-11-10T02:07:57.346Z,9.91
2022-11-10T02:10:23.738Z,9.94
2022-11-10T02:12:50.209Z,9.93
2022-11-10T02:15:17.642Z,9.93
2022-11-10T02:17:45.739Z,9.93
2022-11-10T02:20:13.654Z,9.93
2022-11-10T02:22:40.096Z,9.89
2022-11-10T02:25:07.120Z,9.88
2022-11-10T02:27:33.807Z,9.86
2022-11-10T02:30:00.500Z,9.86
2022-11-10T02:32:28.232Z,9.86
2022-11-10T02:34:54.858Z,9.89
2022-11-10T02:37:21.421Z,9.87
2022-11-10T02:39:47.767Z,9.89
2022-11-10T02:42:14.158Z,9.88
2022-11-10T02:44:40.726Z,9.88
2022-11-10T02:47:07.766Z,9.86
2022-11-10T02:49:34.178Z,9.92
2022-11-10T02:52:00.562Z,9.92
2022-11-10T02:54:26.970Z,9.94
2022-11-10T02:56:53.389Z,9.92
2022-11-10T02:59:19.782Z,9.92
2022-11-10T03:01:46.251Z,9.90
2022-11-10T03:04:12.761Z,9.89
2022-11-10T03:06:39.235Z,9.92
2022-11-10T03:09:06.117Z,9.86
2022-11-10T03:11:32.737Z,9.83
2022-11-10T03:14:02.091Z,9.77
2022-11-10T03:16:28.828Z,9.73
2022-11-10T03:18:55.222Z,9.72
2022-11-10T03:21:21.601Z,9.71
2022-11-10T03:23:48.024Z,9.71
2022-11-10T03:26:14.475Z,9.71
2022-11-10T03:28:40.894Z,9.70
2022-11-10T03:31:07.272Z,9.65
2022-11-10T03:33:33.667Z,9.64
2022-11-10T03:36:00.108Z,9.64
2022-11-10T03:38:26.525Z,9.62
2022-11-10T03:43:39.345Z,9.63
2022-11-10T03:46:05.830Z,9.62
2022-11-10T03:48:32.268Z,9.60
2022-11-10T03:50:58.609Z,9.59
2022-11-10T03:53:25.115Z,9.58
2022-11-10T03:55:51.593Z,9.56
2022-11-10T03:58:17.972Z,9.56
2022-11-10T04:00:44.363Z,9.53
2022-11-10T04:03:10.797Z,9.52
2022-11-10T04:05:55.786Z,9.53
2022-11-10T04:08:40.660Z,9.56
2022-11-10T04:11:07.061Z,9.55
2022-11-10T04:13:52.006Z,9.53
2022-11-10T04:16:18.418Z,9.60
2022-11-10T04:18:44.801Z,9.68
2022-11-10T04:21:12.214Z,9.72
2022-11-10T04:23:38.627Z,9.69
2022-11-10T04:26:26.462Z,9.62
2022-11-10T04:28:53.658Z,9.54
2022-11-10T04:31:21.264Z,9.49
2022-11-10T04:33:48.353Z,9.46
2022-11-10T04:36:16.599Z,9.45
2022-11-10T04:38:43.042Z,9.45
2022-11-10T04:41:09.495Z,9.47
2022-11-10T04:43:36.204Z,9.48
2022-11-10T04:46:03.785Z,9.48
2022-11-10T04:48:30.772Z,9.46
2022-11-10T04:51:02.525Z,9.49
2022-11-10T04:53:28.918Z,9.46
2022-11-10T04:55:55.336Z,9.45
2022-11-10T04:58:21.763Z,9.47
2022-11-10T05:00:48.212Z,9.47
2022-11-10T05:03:15.040Z,9.45
2022-11-10T05:05:41.703Z,9.45
2022-11-10T05:08:08.195Z,9.46
2022-11-10T05:10:35.544Z,9.50
2022-11-10T05:13:02.052Z,9.49
2022-11-10T05:15:28.438Z,9.48
2022-11-10T05:17:55.265Z,9.52
2022-11-10T05:20:22.913Z,9.58
2022-11-10T05:23:09.121Z,9.60
2022-11-10T05:25:37.297Z,9.55
2022-11-10T05:28:04.356Z,9.53
2022-11-10T05:30:32.017Z,9.56
2022-11-10T05:32:58.799Z,9.58
2022-11-10T05:35:25.617Z,9.59
2022-11-10T05:37:52.217Z,9.57
2022-11-10T05:40:18.615Z,9.62
2022-11-10T05:42:45.976Z,9.64
2022-11-10T05:45:12.395Z,9.59
2022-11-10T05:47:39.418Z,9.56
2022-11-10T05:50:06.487Z,9.57
2022-11-10T05:52:32.911Z,9.60
2022-11-10T05:54:59.384Z,9.58
2022-11-10T05:57:25.757Z,9.62
2022-11-10T05:59:52.129Z,9.57
2022-11-10T06:02:18.518Z,9.53
2022-11-10T06:04:44.898Z,9.59
2022-11-10T06:07:12.027Z,9.62
2022-11-10T06:09:38.529Z,9.60
2022-11-10T06:12:05.029Z,9.59
2022-11-10T06:14:31.418Z,9.62
2022-11-10T06:16:57.833Z,9.66
2022-11-10T06:19:24.229Z,9.71
2022-11-10T06:21:52.830Z,9.70
2022-11-10T06:24:23.506Z,9.72
2022-11-10T06:26:49.991Z,9.72
2022-11-10T06:29:16.444Z,9.73
2022-11-10T06:31:42.798Z,9.78
2022-11-10T06:34:09.215Z,9.78
2022-11-10T06:36:35.678Z,9.84
2022-11-10T06:39:02.059Z,9.85
2022-11-10T06:41:28.523Z,9.85
2022-11-10T06:43:56.120Z,9.87
2022-11-10T06:46:22.534Z,9.90
2022-11-10T06:48:48.963Z,9.94
2022-11-10T06:51:15.349Z,9.93
2022-11-10T06:53:42.018Z,10.02
2022-11-10T06:56:08.599Z,10.02
2022-11-10T06:58:37.349Z,10.06
2022-11-10T07:01:03.802Z,10.12
2022-11-10T07:03:30.265Z,10.12
2022-11-10T07:05:57.962Z,10.07
2022-11-10T07:08:24.394Z,10.11
2022-11-10T07:10:52.553Z,10.14
2022-11-10T07:13:19.736Z,10.14
2022-11-10T07:15:46.660Z,10.16
2022-11-10T07:18:13.309Z,10.14
2022-11-10T07:20:39.892Z,10.16
2022-11-10T07:23:07.320Z,10.15
2022-11-10T07:25:35.746Z,10.16
2022-11-10T07:28:03.715Z,10.23
2022-11-10T07:30:31.278Z,10.23
2022-11-10T07:33:01.433Z,10.24
2022-11-10T07:35:28.554Z,10.24
2022-11-10T07:37:55.651Z,10.26
2022-11-10T07:40:22.234Z,10.26
2022-11-10T07:42:48.841Z,10.29
2022-11-10T07:45:15.314Z,10.29
2022-11-10T07:47:41.725Z,10.28
2022-11-10T07:50:08.344Z,10.31
2022-11-10T07:52:34.978Z,10.38
2022-11-10T07:55:01.385Z,10.39
2022-11-10T07:57:27.766Z,10.39
2022-11-10T07:59:57.907Z,10.41
2022-11-10T08:02:24.708Z,10.45
2022-11-10T08:04:51.109Z,10.42
2022-11-10T08:07:17.805Z,10.45
2022-11-10T08:09:44.439Z,10.51
2022-11-10T08:12:10.839Z,10.56
2022-11-10T08:14:37.306Z,10.57
2022-11-10T08:17:03.697Z,10.58
2022-11-10T08:19:30.100Z,10.59
2022-11-10T08:21:56.461Z,10.61
2022-11-10T08:24:22.857Z,10.59
2022-11-10T08:26:49.235Z,10.66
2022-11-10T08:30:50.286Z,10.72
2022-11-10T08:33:19.980Z,10.74
2022-11-10T08:35:48.801Z,10.67
2022-11-10T08:38:21.134Z,10.67
2022-11-10T08:40:47.981Z,10.73
2022-11-10T08:43:15.534Z,10.77
2022-11-10T08:45:43.706Z,10.85
2022-11-10T08:48:17.632Z,10.92
2022-11-10T08:50:44.522Z,11.01
2022-11-10T08:53:16.160Z,10.99
2022-11-10T08:55:43.926Z,11.05
2022-11-10T08:58:13.625Z,11.08
2022-11-10T09:00:40.190Z,11.13
2022-11-10T09:03:15.261Z,11.22
2022-11-10T09:05:42.665Z,11.17
2022-11-10T09:08:09.937Z,11.14
2022-11-10T09:10:41.839Z,11.17
2022-11-10T09:13:08.906Z,11.18
2022-11-10T09:15:35.817Z,11.23
2022-11-10T09:18:04.453Z,11.38
2022-11-10T09:20:33.733Z,11.52
2022-11-10T09:23:17.661Z,11.69
2022-11-10T09:25:52.769Z,11.79
2022-11-10T09:28:20.288Z,11.92
2022-11-10T09:30:51.244Z,12.04
2022-11-10T09:33:18.440Z,12.20
2022-11-10T09:35:45.174Z,12.30
2022-11-10T09:38:12.163Z,12.35
2022-11-10T09:41:03.387Z,12.36
2022-11-10T09:44:02.067Z,12.36
2022-11-10T09:46:35.418Z,12.41
2022-11-10T09:49:13.029Z,12.47
2022-11-10T09:51:47.991Z,12.56
2022-11-10T09:54:37.113Z,12.69
2022-11-10T09:57:06.303Z,12.79
2022-11-10T09:59:34.421Z,12.94
2022-11-10T10:02:05.985Z,13.00
2022-11-10T10:04:48.776Z,13.11
2022-11-10T10:07:43.954Z,13.07
2022-11-10T10:10:17.668Z,13.18
2022-11-10T10:12:54.645Z,13.50
2022-11-10T10:15:30.276Z,13.91
2022-11-10T10:18:03.209Z,14.32
2022-11-10T10:20:46.761Z,14.52
2022-11-10T10:23:35.209Z,14.58
2022-11-10T10:26:15.602Z,14.71
2022-11-10T10:28:46.663Z,14.80
2022-11-10T10:31:22.014Z,14.90
2022-11-10T10:33:49.166Z,14.90
2022-11-10T10:36:23.759Z,14.77
2022-11-10T10:39:04.610Z,14.74
2022-11-10T10:41:34.655Z,14.75
2022-11-10T10:44:03.092Z,14.68
2022-11-10T10:46:35.766Z,14.70
2022-11-10T10:49:32.948Z,14.50
2022-11-10T10:52:07.123Z,14.46
2022-11-10T10:54:36.363Z,14.41
2022-11-10T10:57:20.778Z,14.55
2022-11-10T10:59:47.463Z,14.38
2022-11-10T11:02:40.350Z,14.57
2022-11-10T11:05:15.963Z,14.61
2022-11-10T11:07:56.001Z,14.60
2022-11-10T11:10:34.537Z,14.29
2022-11-10T11:13:14.672Z,14.23
2022-11-10T11:15:41.208Z,14.31
2022-11-10T11:18:20.494Z,14.34
2022-11-10T11:21:20.952Z,14.34
2022-11-10T11:24:03.616Z,14.22
2022-11-10T11:26:43.791Z,13.99
2022-11-10T11:29:32.881Z,13.98
2022-11-10T11:32:21.777Z,13.85
2022-11-10T11:35:03.040Z,13.68
2022-11-10T11:37:46.165Z,13.75
2022-11-10T11:40:37.969Z,13.73
2022-11-10T11:43:23.142Z,13.71
2022-11-10T11:45:59.793Z,13.49
2022-11-10T11:49:15.449Z,13.42
2022-11-10T11:52:03.422Z,13.17
2022-11-10T11:54:47.416Z,12.89
2022-11-10T11:57:29.093Z,12.77
2022-11-10T12:00:02.556Z,12.65
2022-11-10T12:02:52.673Z,12.59
2022-11-10T12:05:37.901Z,12.43
2022-11-10T12:08:33.054Z,12.31
2022-11-10T12:11:05.277Z,12.22
2022-11-10T12:13:31.709Z,12.15
2022-11-10T12:16:17.020Z,12.00
2022-11-10T12:18:57.900Z,11.93
2022-11-10T12:21:34.973Z,11.93
2022-11-10T12:24:29.563Z,11.87
2022-11-10T12:26:59.831Z,11.85
2022-11-10T12:29:43.041Z,11.76
2022-11-10T12:32:15.044Z,11.75
2022-11-10T12:34:50.333Z,11.75
2022-11-10T12:37:28.429Z,11.69
2022-11-10T12:40:17.789Z,11.71
2022-11-10T12:42:51.308Z,11.72
2022-11-10T12:45:22.779Z,11.68
2022-11-10T12:47:49.831Z,11.64
2022-11-10T12:50:16.254Z,11.54
2022-11-10T12:53:11.822Z,11.47
2022-11-10T12:55:46.223Z,11.43
2022-11-10T12:58:14.488Z,11.41
2022-11-10T13:00:55.480Z,11.36
2022-11-10T13:03:32.454Z,11.30
2022-11-10T13:06:02.293Z,11.33
2022-11-10T13:08:45.649Z,11.30
2022-11-10T13:11:12.062Z,11.25
2022-11-10T13:13:53.176Z,11.20
2022-11-10T13:16:44.819Z,11.18
2022-11-10T13:19:38.981Z,11.15
2022-11-10T13:22:10.297Z,11.23
2022-11-10T13:24:42.492Z,11.28
2022-11-10T13:27:32.966Z,11.28
2022-11-10T13:30:00.258Z,11.35
2022-11-10T13:32:32.293Z,11.36
2022-11-10T13:35:29.557Z,11.33
2022-11-10T13:38:00.381Z,11.33
2022-11-10T13:40:34.738Z,11.27
2022-11-10T13:43:01.152Z,11.27
2022-11-10T13:45:33.742Z,11.28
2022-11-10T13:48:34.930Z,11.24
2022-11-10T13:51:14.757Z,11.25
2022-11-10T13:54:42.743Z,11.27
2022-11-10T13:57:34.628Z,11.27
2022-11-10T14:00:07.665Z,11.25
2022-11-10T14:02:53.048Z,11.23
2022-11-10T14:05:29.040Z,11.23
2022-11-10T14:08:04.326Z,11.17
2022-11-10T14:11:02.469Z,11.11
2022-11-10T14:13:44.914Z,11.12
2022-11-10T14:16:18.974Z,11.06
2022-11-10T14:18:51.697Z,11.07
2022-11-10T14:21:41.042Z,11.10
2022-11-10T14:24:11.710Z,11.11
2022-11-10T14:26:46.768Z,11.11
2022-11-10T14:29:20.971Z,11.12
2022-11-10T14:31:47.741Z,11.09
2022-11-10T14:34:18.581Z,11.13
2022-11-10T14:36:56.654Z,11.13
2022-11-10T14:39:28.982Z,11.17
2022-11-10T14:41:57.326Z,11.22
2022-11-10T14:44:27.074Z,11.25
2022-11-10T14:46:54.846Z,11.25
2022-11-10T14:49:25.886Z,11.25
2022-11-10T14:51:57.610Z,11.22
2022-11-10T14:54:27.468Z,11.20
2022-11-10T14:56:55.760Z,11.19
2022-11-10T14:59:24.314Z,11.19
2022-11-10T15:01:54.837Z,11.21
2022-11-10T15:04:28.733Z,11.17
2022-11-10T15:06:56.629Z,11.16
2022-11-10T15:09:27.012Z,11.15
2022-11-10T15:12:02.478Z,11.17
2022-11-10T15:14:39.507Z,11.18
2022-11-10T15:17:11.756Z,11.16
2022-11-10T15:19:44.098Z,11.15
2022-11-10T15:22:22.102Z,11.14
2022-11-10T15:24:51.625Z,11.12
2022-11-10T15:27:27.830Z,11.11
2022-11-10T15:29:56.084Z,11.07
2022-11-10T15:32:28.058Z,11.06
2022-11-10T15:35:09.088Z,11.07
2022-11-10T15:37:35.760Z,11.11
2022-11-10T15:40:31.535Z,11.12
2022-11-10T15:43:29.058Z,11.06
2022-11-10T15:45:59.798Z,11.08
2022-11-10T15:48:37.797Z,11.03
2022-11-10T15:51:04.747Z,10.97
2022-11-10T15:53:37.447Z,10.93
2022-11-10T15:56:04.297Z,10.89
2022-11-10T15:58:30.868Z,10.92
2022-11-10T16:00:57.387Z,10.92
2022-11-10T16:03:24.187Z,10.94
2022-11-10T16:05:50.729Z,10.91
2022-11-10T16:08:22.522Z,10.89
2022-11-10T16:10:54.071Z,10.92
2022-11-10T16:13:26.660Z,10.90
2022-11-10T16:15:53.988Z,10.91
2022-11-10T16:18:23.772Z,10.90
2022-11-10T16:20:52.225Z,10.81
2022-11-10T16:23:19.656Z,10.80
2022-11-10T16:25:48.616Z,10.81
2022-11-10T16:28:24.098Z,10.77
2022-11-10T16:30:51.661Z,10.80
2022-11-10T16:33:20.168Z,10.77
2022-11-10T16:35:50.281Z,10.82
2022-11-10T16:38:22.437Z,10.82
2022-11-10T16:40:54.671Z,10.90
2022-11-10T16:43:22.069Z,10.84
2022-11-10T16:45:51.314Z,10.88
2022-11-10T16:48:38.056Z,10.87
2022-11-10T16:51:07.123Z,10.87
2022-11-10T16:53:33.662Z,10.86
2022-11-10T16:56:00.166Z,10.86
2022-11-10T16:58:28.156Z,10.85
2022-11-10T17:00:59.216Z,10.85
2022-11-10T17:03:35.557Z,10.86
2022-11-10T17:06:02.211Z,10.86
2022-11-10T17:08:31.007Z,10.84
2022-11-10T17:10:57.546Z,10.80
2022-11-10T17:13:25.141Z,10.79
2022-11-10T17:16:03.143Z,10.79
2022-11-10T17:18:29.827Z,10.80
2022-11-10T17:20:56.488Z,10.76
2022-11-10T17:23:24.973Z,10.75
2022-11-10T17:25:54.119Z,10.70
2022-11-10T17:28:20.982Z,10.64
2022-11-10T17:30:47.524Z,10.56
2022-11-10T17:33:14.092Z,10.51
2022-11-10T17:35:45.290Z,10.57
2022-11-10T17:38:17.145Z,10.60
2022-11-10T17:40:43.918Z,10.59
2022-11-10T17:43:12.325Z,10.56
2022-11-10T17:45:39.707Z,10.58
2022-11-10T17:48:07.332Z,10.61
2022-11-10T17:50:36.516Z,10.60
2022-11-10T17:53:24.080Z,10.68
2022-11-10T17:55:51.352Z,10.68
2022-11-10T17:58:18.195Z,10.69
2022-11-10T18:00:46.207Z,10.77
2022-11-10T18:03:18.379Z,10.74
2022-11-10T18:05:45.575Z,10.72
2022-11-10T18:08:13.595Z,10.70
2022-11-10T18:10:46.452Z,10.61
2022-11-10T18:13:13.017Z,10.52
2022-11-10T18:15:43.665Z,10.51
2022-11-10T18:18:11.975Z,10.45
2022-11-10T18:20:39.042Z,10.31
2022-11-10T18:23:07.240Z,10.26
2022-11-10T18:25:34.813Z,10.25
2022-11-10T18:28:01.361Z,10.17
2022-11-10T18:30:32.262Z,10.07
2022-11-10T18:33:02.983Z,9.98
2022-11-10T18:35:29.718Z,9.84
2022-11-10T18:37:57.437Z,9.73
2022-11-10T18:40:23.973Z,9.73
2022-11-10T18:42:50.541Z,9.70
2022-11-10T18:45:17.088Z,9.67
2022-11-10T18:47:43.573Z,9.62
2022-11-10T18:50:10.621Z,9.61
2022-11-10T18:52:37.191Z,9.61
2022-11-10T18:55:03.759Z,9.66
2022-11-10T18:57:30.253Z,9.66
2022-11-10T18:59:56.788Z,9.64
2022-11-10T19:02:23.274Z,9.68
2022-11-10T19:04:53.502Z,9.69
2022-11-10T19:07:20.699Z,9.65
2022-11-10T19:09:48.335Z,9.65
2022-11-10T19:12:14.991Z,9.68
2022-11-10T19:14:41.477Z,9.69
2022-11-10T19:17:08.074Z,9.67
2022-11-10T19:19:34.594Z,9.65
2022-11-10T19:22:01.145Z,9.62
2022-11-10T19:24:28.960Z,9.55
2022-11-10T19:26:56.883Z,9.54
2022-11-10T19:29:23.804Z,9.51
2022-11-10T19:31:50.330Z,9.47
2022-11-10T19:34:18.888Z,9.43
2022-11-10T19:36:46.095Z,9.43
2022-11-10T19:39:12.809Z,9.37
2022-11-10T19:41:39.481Z,9.30
2022-11-10T19:44:06.061Z,9.25
2022-11-10T19:46:36.602Z,9.20
2022-11-10T19:49:04.276Z,9.12
2022-11-10T19:51:30.782Z,9.07
2022-11-10T19:54:02.654Z,9.04
2022-11-10T19:56:32.149Z,9.02
2022-11-10T19:58:59.463Z,8.96
2022-11-10T20:01:26.575Z,8.92
2022-11-10T20:03:53.333Z,8.83
2022-11-10T20:06:21.839Z,8.81
2022-11-10T20:08:49.226Z,8.77
2022-11-10T20:11:19.259Z,8.74
2022-11-10T20:13:45.925Z,8.76
2022-11-10T20:16:13.004Z,8.72
2022-11-10T20:18:40.610Z,8.67
2022-11-10T20:21:13.043Z,8.61
2022-11-10T20:23:40.322Z,8.55
2022-11-10T20:26:09.982Z,8.53
2022-11-10T20:28:38.211Z,8.48
2022-11-10T20:31:07.754Z,8.48
2022-11-10T20:33:35.529Z,8.46
2022-11-10T20:36:19.967Z,8.38
2022-11-10T20:38:47.715Z,8.36
2022-11-10T20:41:20.188Z,8.31
2022-11-10T20:43:47.168Z,8.28
2022-11-10T20:46:33.300Z,8.31
2022-11-10T20:49:02.902Z,8.26
2022-11-10T20:51:29.471Z,8.26
2022-11-10T20:53:56.976Z,8.19
2022-11-10T20:56:29.287Z,8.17
2022-11-10T20:58:56.575Z,8.16
2022-11-10T21:01:23.750Z,8.12
2022-11-10T21:03:50.445Z,8.11
2022-11-10T21:06:17.365Z,8.08
2022-11-10T21:08:43.899Z,8.00
2022-11-10T21:11:10.753Z,7.95
2022-11-10T21:13:37.571Z,7.82
2022-11-10T21:16:06.122Z,7.77
2022-11-10T21:18:36.886Z,7.69
2022-11-10T21:21:04.932Z,7.61
2022-11-10T21:23:31.967Z,7.44
2022-11-10T21:26:01.248Z,7.47
2022-11-10T21:28:27.791Z,7.39
2022-11-10T21:31:05.391Z,7.54
2022-11-10T21:33:31.965Z,7.58
2022-11-10T21:36:06.082Z,7.61
2022-11-10T21:38:32.838Z,7.64
2022-11-10T21:40:59.507Z,7.55
2022-11-10T21:43:26.096Z,7.56
2022-11-10T21:46:02.843Z,7.57
2022-11-10T21:48:29.627Z,7.57
2022-11-10T21:51:01.113Z,7.48
2022-11-10T21:53:27.828Z,7.42
2022-11-10T21:56:02.353Z,7.32
2022-11-10T21:58:29.177Z,7.25
2022-11-10T22:01:07.552Z,7.15
2022-11-10T22:03:34.978Z,7.06
2022-11-10T22:06:05.886Z,7.05
2022-11-10T22:08:33.177Z,6.96
2022-11-10T22:11:18.484Z,6.83
2022-11-10T22:14:03.726Z,6.72
2022-11-10T22:17:07.143Z,6.55
2022-11-10T22:19:35.389Z,6.38
2022-11-10T22:22:04.188Z,6.42
2022-11-10T22:24:30.939Z,6.34
2022-11-10T22:26:59.593Z,6.27
2022-11-10T22:29:32.170Z,6.13
2022-11-10T22:32:02.547Z,6.18
2022-11-10T22:34:29.214Z,6.23
2022-11-10T22:36:55.938Z,6.20
2022-11-10T22:39:22.810Z,6.19
2022-11-10T22:42:08.252Z,6.11
2022-11-10T22:44:36.258Z,6.00
2022-11-10T22:47:02.824Z,6.03
2022-11-10T22:49:29.376Z,5.99
2022-11-10T22:51:55.926Z,5.89
2022-11-10T22:54:23.943Z,5.93
2022-11-10T22:56:51.500Z,5.92
2022-11-10T22:59:18.878Z,5.94
2022-11-10T23:01:45.806Z,5.87
2022-11-10T23:04:12.657Z,5.78
2022-11-10T23:06:39.778Z,5.61
2022-11-10T23:09:06.393Z,5.59
2022-11-10T23:11:33.753Z,5.47
2022-11-10T23:14:00.514Z,5.45
2022-11-10T23:16:32.065Z,5.27
2022-11-10T23:18:59.060Z,5.23
2022-11-10T23:21:29.021Z,5.22
2022-11-10T23:23:56.270Z,5.14
2022-11-10T23:26:30.098Z,5.10
2022-11-10T23:28:56.688Z,5.15
2022-11-10T23:31:25.724Z,5.14
2022-11-10T23:33:56.636Z,5.11
2022-11-10T23:36:25.210Z,5.05
2022-11-10T23:38:52.002Z,4.99
2022-11-10T23:41:21.080Z,4.93
2022-11-10T23:43:47.696Z,4.86
2022-11-10T23:46:14.738Z,4.83
2022-11-10T23:48:42.211Z,4.75
2022-11-10T23:51:11.222Z,4.72
2022-11-10T23:53:38.192Z,4.61
2022-11-10T23:56:07.332Z,4.53
2022-11-10T23:58:33.892Z,4.49
